KLNR/LNR METAR and TAF weather

Enter ICAO airport designator
Station Type Date Time Source
KLNR METAR 2019/08/25 19:56 UTC NOAA

KLNR 251956Z AUTO 12007KT 10SM OVC110 22/13 A3003 RMK AO2 SLP164 T02220133 $


Station Type Date Time Source
KLNR Decoded METAR 2019/08/25 19:56 UTC NOAA

Station name not available
Aug 25, 2019 - 03:56 PM EDT / 2019.08.25 1956 UTC
Wind: from the ESE (120 degrees) at 8 MPH (7 KT):0
Visibility: 10 mile(s):0
Sky conditions: overcast
Temperature: 72.0 F (22.2 C)
Dew Point: 55.9 F (13.3 C)
Relative Humidity: 57%
Pressure (altimeter): 30.03 in. Hg (1016 hPa)
ob: KLNR 251956Z AUTO 12007KT 10SM OVC110 22/13 A3003 RMK AO2 SLP164 T02220133
cycle: 20

Station Type Date Time Source
KLNR TAF UTC NOAA

Error!

Example: see airport list